createdAt,value
2018-07-13T00:02:03.979Z,19.90
2018-07-13T00:04:32.652Z,19.80
2018-07-13T00:07:01.368Z,20.00
2018-07-13T00:09:30.093Z,20.00
2018-07-13T00:11:58.751Z,20.20
2018-07-13T00:14:27.463Z,20.40
2018-07-13T00:16:57.264Z,20.30
2018-07-13T00:19:26.357Z,20.30
2018-07-13T00:21:55.068Z,20.20
2018-07-13T00:24:23.787Z,20.20
2018-07-13T00:26:52.481Z,20.30
2018-07-13T00:29:21.147Z,19.80
2018-07-13T00:31:49.816Z,20.40
2018-07-13T00:34:18.491Z,19.90
2018-07-13T00:36:47.201Z,20.00
2018-07-13T00:39:15.883Z,19.50
2018-07-13T00:41:44.585Z,20.20
2018-07-13T00:44:13.294Z,19.80
2018-07-13T00:46:42.038Z,19.80
2018-07-13T00:49:10.715Z,20.00
2018-07-13T00:51:39.381Z,20.20
2018-07-13T00:54:08.069Z,20.10
2018-07-13T00:56:36.825Z,20.10
2018-07-13T00:59:05.494Z,19.80
2018-07-13T01:01:34.172Z,19.90
2018-07-13T01:04:02.846Z,19.50
2018-07-13T01:06:31.530Z,19.00
2018-07-13T01:09:00.239Z,19.50
2018-07-13T01:11:28.943Z,19.60
2018-07-13T01:13:57.656Z,19.50
2018-07-13T01:16:26.352Z,19.50
2018-07-13T01:18:55.065Z,19.40
2018-07-13T01:21:23.798Z,19.30
2018-07-13T01:23:52.457Z,19.20
2018-07-13T01:26:21.171Z,19.10
2018-07-13T01:28:50.164Z,19.10
2018-07-13T01:31:18.836Z,19.10
2018-07-13T01:33:47.554Z,19.10
2018-07-13T01:36:16.224Z,19.10
2018-07-13T01:38:44.945Z,19.20
2018-07-13T01:41:13.658Z,18.90
2018-07-13T01:43:42.313Z,18.80
2018-07-13T01:46:11.035Z,18.30
2018-07-13T01:48:39.776Z,18.20
2018-07-13T01:51:08.486Z,18.20
2018-07-13T01:53:37.202Z,18.50
2018-07-13T01:56:05.876Z,18.40
2018-07-13T01:58:34.573Z,18.40
2018-07-13T02:01:03.561Z,18.50
2018-07-13T02:03:32.222Z,18.50
2018-07-13T02:06:00.912Z,18.20
2018-07-13T02:08:29.598Z,18.40
2018-07-13T02:10:58.354Z,18.50
2018-07-13T02:13:27.067Z,18.40
2018-07-13T02:15:55.777Z,18.20
2018-07-13T02:18:24.480Z,18.50
2018-07-13T02:20:53.143Z,18.60
2018-07-13T02:23:21.893Z,18.40
2018-07-13T02:25:50.625Z,18.40
2018-07-13T02:28:19.292Z,18.40
2018-07-13T02:30:48.040Z,18.30
2018-07-13T02:33:16.729Z,18.70
2018-07-13T02:35:45.477Z,17.70
2018-07-13T02:38:14.173Z,18.10
2018-07-13T02:40:42.905Z,18.50
2018-07-13T02:43:11.623Z,18.60
2018-07-13T02:45:40.340Z,18.10
2018-07-13T02:48:09.061Z,18.40
2018-07-13T02:50:37.751Z,18.20
2018-07-13T02:53:06.456Z,18.00
2018-07-13T02:55:35.171Z,17.60
2018-07-13T02:58:03.865Z,17.20
2018-07-13T03:00:32.597Z,17.60
2018-07-13T03:03:01.296Z,17.30
2018-07-13T03:05:30.021Z,17.80
2018-07-13T03:07:58.708Z,18.20
2018-07-13T03:10:27.400Z,18.30
2018-07-13T03:12:56.095Z,18.20
2018-07-13T03:15:24.793Z,18.20
2018-07-13T03:17:53.472Z,18.10
2018-07-13T03:20:22.194Z,17.50
2018-07-13T03:22:50.933Z,16.80
2018-07-13T03:25:19.649Z,17.00
2018-07-13T03:27:48.349Z,17.40
2018-07-13T03:30:17.077Z,17.30
2018-07-13T03:32:45.778Z,16.80
2018-07-13T03:35:14.484Z,17.10
2018-07-13T03:37:43.162Z,17.30
2018-07-13T03:40:11.861Z,17.60
2018-07-13T03:42:40.569Z,17.40
2018-07-13T03:45:09.249Z,17.20
2018-07-13T03:47:37.962Z,17.20
2018-07-13T03:50:06.916Z,17.20
2018-07-13T03:52:35.618Z,17.20
2018-07-13T03:55:04.397Z,17.40
2018-07-13T03:57:33.132Z,17.80
2018-07-13T04:00:01.855Z,17.80
2018-07-13T04:02:30.562Z,17.50
2018-07-13T04:04:59.249Z,17.40
2018-07-13T04:07:27.921Z,17.30
2018-07-13T04:09:56.622Z,17.50
2018-07-13T04:12:25.354Z,17.50
2018-07-13T04:14:54.021Z,18.00
2018-07-13T04:17:22.688Z,17.70
2018-07-13T04:19:51.401Z,17.70
2018-07-13T04:22:20.161Z,17.70
2018-07-13T04:24:48.854Z,17.80
2018-07-13T04:27:17.584Z,18.20
2018-07-13T04:29:46.457Z,17.80
2018-07-13T04:32:15.181Z,18.40
2018-07-13T04:34:43.880Z,18.50
2018-07-13T04:37:12.583Z,18.60
2018-07-13T04:39:41.336Z,18.70
2018-07-13T04:42:10.366Z,19.00
2018-07-13T04:44:39.059Z,18.90
2018-07-13T04:47:07.720Z,18.90
2018-07-13T04:49:36.424Z,19.30
2018-07-13T04:52:05.186Z,19.30
2018-07-13T04:54:33.855Z,19.00
2018-07-13T04:57:02.558Z,18.90
2018-07-13T04:59:31.277Z,19.50
2018-07-13T05:01:59.956Z,19.80
2018-07-13T05:04:28.653Z,19.60
2018-07-13T05:06:57.341Z,19.60
2018-07-13T05:09:26.055Z,19.90
2018-07-13T05:11:54.735Z,20.40
2018-07-13T05:14:23.420Z,20.40
2018-07-13T05:16:52.114Z,20.40
2018-07-13T05:19:20.796Z,20.30
2018-07-13T05:21:49.500Z,20.70
2018-07-13T05:24:18.390Z,20.80
2018-07-13T05:26:47.110Z,20.70
2018-07-13T05:29:15.788Z,20.50
2018-07-13T05:31:44.499Z,20.60
2018-07-13T05:34:13.198Z,20.30
2018-07-13T05:36:41.918Z,20.40
2018-07-13T05:39:12.200Z,20.90
2018-07-13T05:41:41.384Z,21.60
2018-07-13T05:44:10.234Z,21.80
2018-07-13T05:46:39.328Z,21.40
2018-07-13T05:49:08.057Z,21.50
2018-07-13T05:51:36.760Z,21.90
2018-07-13T05:54:05.440Z,21.50
2018-07-13T05:56:34.159Z,21.50
2018-07-13T05:59:03.625Z,21.70
2018-07-13T06:01:32.313Z,22.40
2018-07-13T06:04:01.008Z,22.20
2018-07-13T06:06:29.722Z,21.80
2018-07-13T06:08:58.461Z,21.90
2018-07-13T06:11:27.215Z,21.60
2018-07-13T06:13:55.944Z,21.90
2018-07-13T06:16:24.598Z,21.60
2018-07-13T06:18:53.309Z,21.40
2018-07-13T06:21:22.061Z,21.40
2018-07-13T06:23:50.777Z,21.50
2018-07-13T06:26:19.473Z,20.90
2018-07-13T06:28:48.173Z,21.20
2018-07-13T06:31:16.836Z,21.70
2018-07-13T06:33:45.556Z,21.80
2018-07-13T06:36:14.272Z,21.90
2018-07-13T06:38:43.023Z,21.80
2018-07-13T06:41:11.713Z,21.80
2018-07-13T06:43:40.433Z,22.30
2018-07-13T06:46:09.149Z,22.00
2018-07-13T06:48:37.807Z,21.70
2018-07-13T06:51:06.518Z,21.60
2018-07-13T06:53:35.230Z,21.80
2018-07-13T06:56:03.925Z,21.50
2018-07-13T06:58:44.043Z,21.60
2018-07-13T07:01:12.736Z,21.60
2018-07-13T07:04:56.615Z,21.60
2018-07-13T07:07:26.295Z,21.50
2018-07-13T07:09:56.765Z,21.80
2018-07-13T07:12:50.800Z,21.40
2018-07-13T07:15:19.776Z,21.10
2018-07-13T07:17:48.546Z,21.30
2018-07-13T07:20:17.305Z,21.20
2018-07-13T07:22:46.582Z,21.70
2018-07-13T07:25:15.287Z,21.90
2018-07-13T07:27:44.377Z,22.20
2018-07-13T07:30:13.132Z,22.10
2018-07-13T07:32:41.874Z,22.40
2018-07-13T07:35:11.003Z,22.70
2018-07-13T07:37:39.795Z,22.90
2018-07-13T07:40:08.494Z,22.70
2018-07-13T07:42:37.206Z,23.00
2018-07-13T07:45:06.073Z,22.80
2018-07-13T07:47:34.801Z,22.10
2018-07-13T07:50:03.557Z,21.90
2018-07-13T07:52:32.280Z,21.90
2018-07-13T07:55:00.992Z,21.90
2018-07-13T07:57:29.777Z,21.60
2018-07-13T07:59:58.414Z,21.40
2018-07-13T08:02:27.117Z,22.20
2018-07-13T08:04:55.826Z,22.40
2018-07-13T08:07:24.635Z,22.50
2018-07-13T08:09:53.517Z,22.60
2018-07-13T08:12:22.236Z,22.60
2018-07-13T08:14:50.959Z,22.30
2018-07-13T08:17:19.698Z,22.20
2018-07-13T08:19:48.412Z,22.60
2018-07-13T08:22:21.249Z,22.30
2018-07-13T08:24:53.178Z,22.30
2018-07-13T08:27:25.896Z,21.60
2018-07-13T08:29:56.379Z,21.70
2018-07-13T08:32:25.211Z,21.50
2018-07-13T08:34:53.941Z,21.40
2018-07-13T08:37:22.600Z,20.60
2018-07-13T08:39:51.298Z,20.50
2018-07-13T08:42:19.956Z,20.60
2018-07-13T08:44:48.670Z,20.50
2018-07-13T08:47:17.345Z,21.00
2018-07-13T08:49:46.073Z,21.10
2018-07-13T08:52:14.782Z,21.30
2018-07-13T08:54:43.494Z,21.60
2018-07-13T08:57:12.201Z,21.70
2018-07-13T08:59:40.927Z,22.80
2018-07-13T09:02:09.614Z,22.80
2018-07-13T09:04:38.324Z,23.00
2018-07-13T09:07:07.000Z,23.00
2018-07-13T09:09:35.668Z,22.80
2018-07-13T09:12:04.389Z,22.90
2018-07-13T09:14:33.076Z,22.80
2018-07-13T09:17:01.754Z,22.80
2018-07-13T09:19:30.494Z,23.80
2018-07-13T09:21:59.206Z,23.90
2018-07-13T09:24:27.926Z,24.40
2018-07-13T09:26:56.643Z,24.30
2018-07-13T09:29:25.366Z,24.80
2018-07-13T09:31:54.452Z,24.90
2018-07-13T09:34:23.138Z,25.10
2018-07-13T09:36:51.876Z,25.00
2018-07-13T09:39:20.607Z,25.50
2018-07-13T09:41:49.324Z,24.90
2018-07-13T09:44:18.022Z,24.50
2018-07-13T09:46:46.761Z,24.40
2018-07-13T09:49:15.477Z,24.90
2018-07-13T09:51:44.201Z,25.60
2018-07-13T09:54:12.988Z,25.50
2018-07-13T09:56:41.696Z,24.60
2018-07-13T09:59:10.362Z,25.10
2018-07-13T10:01:39.100Z,25.50
2018-07-13T10:04:07.780Z,25.50
2018-07-13T10:06:36.493Z,24.70
2018-07-13T10:09:05.904Z,25.20
2018-07-13T10:11:34.583Z,25.10
2018-07-13T10:14:03.339Z,24.60
2018-07-13T10:16:32.073Z,24.90
2018-07-13T10:19:00.793Z,25.40
2018-07-13T10:21:29.758Z,26.10
2018-07-13T10:23:58.503Z,26.00
2018-07-13T10:26:32.683Z,26.60
2018-07-13T10:29:02.229Z,26.90
2018-07-13T10:31:30.921Z,26.60
2018-07-13T10:33:59.621Z,26.80
2018-07-13T10:36:28.338Z,26.70
2018-07-13T10:38:57.020Z,26.20
2018-07-13T10:41:25.728Z,26.50
2018-07-13T10:43:54.423Z,26.40
2018-07-13T10:46:23.146Z,26.10
2018-07-13T10:48:51.845Z,26.10
2018-07-13T10:51:20.515Z,26.10
2018-07-13T10:53:49.209Z,25.60
2018-07-13T10:56:17.872Z,25.60
2018-07-13T10:58:46.569Z,26.80
2018-07-13T11:01:15.257Z,26.70
2018-07-13T11:03:43.954Z,26.40
2018-07-13T11:06:12.629Z,26.60
2018-07-13T11:08:41.358Z,26.20
2018-07-13T11:11:10.020Z,26.60
2018-07-13T11:13:38.744Z,26.60
2018-07-13T11:16:07.409Z,26.30
2018-07-13T11:18:36.062Z,26.20
2018-07-13T11:21:04.985Z,25.90
2018-07-13T11:23:33.672Z,26.50
2018-07-13T11:26:02.625Z,26.60
2018-07-13T11:28:31.329Z,26.50
2018-07-13T11:31:00.077Z,26.40
2018-07-13T11:33:28.815Z,26.90
2018-07-13T11:35:57.514Z,27.10
2018-07-13T11:38:26.171Z,27.10
2018-07-13T11:40:54.898Z,27.50
2018-07-13T11:43:23.593Z,28.10
2018-07-13T11:45:52.258Z,27.30
2018-07-13T11:48:21.038Z,27.30
2018-07-13T11:50:49.705Z,27.40
2018-07-13T11:53:18.420Z,28.00
2018-07-13T11:55:47.110Z,29.00
2018-07-13T11:58:15.785Z,30.00
2018-07-13T12:00:44.499Z,31.30
2018-07-13T12:03:13.160Z,31.80
2018-07-13T12:05:41.873Z,32.20
2018-07-13T12:08:10.762Z,32.20
2018-07-13T12:10:39.477Z,32.70
2018-07-13T12:13:08.161Z,32.40
2018-07-13T12:15:36.869Z,31.70
2018-07-13T12:18:05.804Z,31.00
2018-07-13T12:20:34.506Z,31.40
2018-07-13T12:23:03.212Z,31.00
2018-07-13T12:25:31.897Z,31.70
2018-07-13T12:28:00.597Z,34.50
2018-07-13T12:30:29.393Z,36.80
2018-07-13T12:32:58.077Z,37.20
2018-07-13T12:35:26.745Z,38.00
2018-07-13T12:37:55.436Z,39.50
2018-07-13T12:40:24.112Z,40.90
2018-07-13T12:42:52.767Z,41.90
2018-07-13T12:45:21.452Z,42.70
2018-07-13T12:47:50.115Z,42.40
2018-07-13T12:50:18.772Z,42.40
2018-07-13T12:52:47.507Z,43.80
2018-07-13T12:55:16.216Z,42.80
2018-07-13T12:57:44.926Z,45.40
2018-07-13T13:00:13.599Z,48.50
2018-07-13T13:02:42.260Z,48.10
2018-07-13T13:05:10.996Z,49.40
2018-07-13T13:07:39.676Z,50.40
2018-07-13T13:10:08.594Z,51.80
2018-07-13T13:12:37.562Z,52.70
2018-07-13T13:15:06.745Z,52.10
2018-07-13T13:17:35.705Z,54.60
2018-07-13T13:20:04.545Z,55.30
2018-07-13T13:22:33.410Z,54.50
2018-07-13T13:25:02.232Z,52.90
2018-07-13T13:27:31.115Z,52.70
2018-07-13T13:29:59.979Z,51.60
2018-07-13T13:32:28.802Z,52.90
2018-07-13T13:34:57.661Z,51.30
2018-07-13T13:37:26.526Z,51.90
2018-07-13T13:39:55.410Z,48.90
2018-07-13T13:42:24.365Z,50.30
2018-07-13T13:44:53.215Z,48.70
2018-07-13T13:47:22.094Z,50.10
2018-07-13T13:49:51.029Z,50.60
2018-07-13T13:52:19.850Z,50.80
2018-07-13T13:54:48.717Z,49.10
2018-07-13T13:57:17.561Z,47.40
2018-07-13T13:59:46.472Z,48.30
2018-07-13T14:02:15.273Z,48.10
2018-07-13T14:04:44.218Z,49.60
2018-07-13T14:07:13.082Z,49.70
2018-07-13T14:09:42.020Z,48.80
2018-07-13T14:12:10.926Z,46.50
2018-07-13T14:14:39.853Z,46.80
2018-07-13T14:17:08.641Z,48.70
2018-07-13T14:19:37.578Z,52.80
2018-07-13T14:22:06.490Z,50.90
2018-07-13T14:24:35.439Z,48.80
2018-07-13T14:27:04.281Z,51.20
2018-07-13T14:29:33.124Z,50.60
2018-07-13T14:32:01.951Z,50.30
2018-07-13T14:34:30.846Z,49.80
2018-07-13T14:36:59.676Z,50.30
2018-07-13T14:39:28.587Z,49.60
2018-07-13T14:41:57.544Z,49.10
2018-07-13T14:44:27.306Z,50.40
2018-07-13T14:46:56.315Z,49.60
2018-07-13T14:49:25.164Z,48.50
2018-07-13T14:51:54.044Z,50.40
2018-07-13T14:54:22.881Z,52.90
2018-07-13T14:56:51.717Z,54.90
2018-07-13T14:59:20.580Z,53.40
2018-07-13T15:01:49.430Z,54.10
2018-07-13T15:04:18.393Z,55.00
2018-07-13T15:06:47.250Z,53.40
2018-07-13T15:09:16.096Z,52.30
2018-07-13T15:11:44.987Z,52.00
2018-07-13T15:14:13.855Z,49.30
2018-07-13T15:16:42.779Z,51.20
2018-07-13T15:19:11.639Z,50.60
2018-07-13T15:21:40.640Z,52.70
2018-07-13T15:24:09.478Z,51.90
2018-07-13T15:26:38.406Z,46.90
2018-07-13T15:29:07.289Z,45.10
2018-07-13T15:31:36.096Z,44.30
2018-07-13T15:34:05.344Z,45.30
2018-07-13T15:36:34.189Z,47.50
2018-07-13T15:39:03.089Z,45.10
2018-07-13T15:41:31.976Z,40.60
2018-07-13T15:44:00.827Z,41.40
2018-07-13T15:46:29.727Z,42.40
2018-07-13T15:48:58.570Z,43.80
2018-07-13T15:51:27.432Z,46.40
2018-07-13T15:53:56.369Z,46.50
2018-07-13T15:56:25.192Z,49.30
2018-07-13T15:58:54.127Z,46.70
2018-07-13T16:01:22.951Z,47.90
2018-07-13T16:03:51.809Z,46.60
2018-07-13T16:06:20.677Z,45.80
2018-07-13T16:08:49.537Z,46.00
2018-07-13T16:11:18.432Z,47.10
2018-07-13T16:13:47.292Z,45.10
2018-07-13T16:16:16.234Z,42.30
2018-07-13T16:18:45.036Z,37.70
2018-07-13T16:21:13.862Z,35.50
2018-07-13T16:23:42.760Z,35.30
2018-07-13T16:26:11.866Z,33.90
2018-07-13T16:28:40.805Z,32.90
2018-07-13T16:31:09.689Z,32.40
2018-07-13T16:33:38.569Z,32.10
2018-07-13T16:36:07.460Z,31.80
2018-07-13T16:38:36.358Z,31.40
2018-07-13T16:41:05.286Z,30.50
2018-07-13T16:43:34.184Z,30.00
2018-07-13T16:46:03.108Z,29.70
2018-07-13T16:48:31.965Z,29.40
2018-07-13T16:51:00.820Z,29.40
2018-07-13T16:53:29.657Z,29.50
2018-07-13T16:55:58.507Z,29.00
2018-07-13T16:58:27.340Z,28.90
2018-07-13T17:00:56.177Z,29.70
2018-07-13T17:03:25.047Z,32.60
2018-07-13T17:05:53.899Z,37.40
2018-07-13T17:08:22.780Z,38.60
2018-07-13T17:10:51.672Z,36.70
2018-07-13T17:13:20.500Z,36.20
2018-07-13T17:15:49.370Z,38.20
2018-07-13T17:18:18.170Z,39.50
2018-07-13T17:20:47.012Z,40.60
2018-07-13T17:23:15.836Z,40.80
2018-07-13T17:25:44.660Z,39.90
2018-07-13T17:28:13.552Z,37.90
2018-07-13T17:30:42.400Z,34.70
2018-07-13T17:33:11.197Z,34.10
2018-07-13T17:35:40.070Z,33.20
2018-07-13T17:38:08.941Z,32.70
2018-07-13T17:40:38.449Z,32.20
2018-07-13T17:43:07.319Z,31.40
2018-07-13T17:45:36.095Z,31.10
2018-07-13T17:48:05.138Z,30.40
2018-07-13T17:50:33.940Z,29.80
2018-07-13T17:53:03.450Z,29.50
2018-07-13T17:55:32.286Z,28.90
2018-07-13T17:58:01.117Z,28.90
2018-07-13T18:00:30.068Z,28.30
2018-07-13T18:02:58.900Z,28.20
2018-07-13T18:05:27.814Z,28.10
2018-07-13T18:07:56.612Z,28.00
2018-07-13T18:10:25.475Z,27.60
2018-07-13T18:12:54.533Z,27.40
2018-07-13T18:15:23.229Z,27.20
2018-07-13T18:17:52.072Z,26.80
2018-07-13T18:20:20.936Z,26.60
2018-07-13T18:22:49.895Z,26.40
2018-07-13T18:25:18.720Z,26.30
2018-07-13T18:27:47.612Z,26.10
2018-07-13T18:30:16.444Z,26.00
2018-07-13T18:32:45.288Z,25.30
2018-07-13T18:35:14.214Z,25.50
2018-07-13T18:37:43.019Z,25.40
2018-07-13T18:40:11.892Z,25.10
2018-07-13T18:42:40.715Z,24.80
2018-07-13T18:45:09.549Z,25.00
2018-07-13T18:47:38.429Z,25.00
2018-07-13T18:50:07.251Z,24.90
2018-07-13T18:52:36.075Z,24.60
2018-07-13T18:55:04.948Z,24.60
2018-07-13T18:57:33.808Z,24.50
2018-07-13T19:00:02.700Z,24.50
2018-07-13T19:02:31.605Z,24.30
2018-07-13T19:05:00.441Z,24.20
2018-07-13T19:07:29.364Z,24.10
2018-07-13T19:09:58.180Z,24.10
2018-07-13T19:12:27.024Z,24.00
2018-07-13T19:14:55.913Z,23.70
2018-07-13T19:17:24.793Z,23.60
2018-07-13T19:19:53.607Z,23.80
2018-07-13T19:22:22.427Z,23.60
2018-07-13T19:24:51.268Z,23.70
2018-07-13T19:27:20.157Z,23.60
2018-07-13T19:29:48.954Z,23.40
2018-07-13T19:32:17.820Z,23.30
2018-07-13T19:34:46.812Z,22.90
2018-07-13T19:37:15.706Z,23.00
2018-07-13T19:39:44.537Z,22.80
2018-07-13T19:42:13.380Z,22.50
2018-07-13T19:44:42.216Z,22.10
2018-07-13T19:47:11.011Z,22.30
2018-07-13T19:49:39.836Z,22.10
2018-07-13T19:52:08.692Z,22.00
2018-07-13T19:54:37.524Z,21.60
2018-07-13T19:57:06.482Z,21.60
2018-07-13T19:59:35.288Z,22.10
2018-07-13T20:02:04.132Z,21.80
2018-07-13T20:04:32.987Z,21.90
2018-07-13T20:07:01.815Z,22.40
2018-07-13T20:09:30.622Z,22.20
2018-07-13T20:11:59.460Z,22.30
2018-07-13T20:14:28.307Z,22.40
2018-07-13T20:16:57.331Z,22.60
2018-07-13T20:19:26.061Z,22.40
2018-07-13T20:21:54.938Z,22.50
2018-07-13T20:24:23.821Z,22.60
2018-07-13T20:26:52.664Z,22.70
2018-07-13T20:29:21.529Z,22.80
2018-07-13T20:31:50.433Z,22.80
2018-07-13T20:34:19.230Z,22.90
2018-07-13T20:36:48.056Z,22.80
2018-07-13T20:39:16.901Z,23.00
2018-07-13T20:41:45.756Z,22.70
2018-07-13T20:44:14.594Z,22.70
2018-07-13T20:46:43.429Z,22.60
2018-07-13T20:49:12.309Z,22.50
2018-07-13T20:51:41.111Z,22.60
2018-07-13T20:54:10.036Z,22.60
2018-07-13T20:56:38.767Z,22.00
2018-07-13T20:59:07.595Z,21.30
2018-07-13T21:01:36.412Z,21.60
2018-07-13T21:04:05.250Z,21.90
2018-07-13T21:06:34.114Z,22.30
2018-07-13T21:09:03.222Z,22.10
2018-07-13T21:11:32.099Z,22.00
2018-07-13T21:14:01.090Z,22.20
2018-07-13T21:16:29.965Z,21.90
2018-07-13T21:18:58.856Z,21.80
2018-07-13T21:21:27.648Z,22.00
2018-07-13T21:23:56.443Z,22.20
2018-07-13T21:26:25.261Z,22.40
2018-07-13T21:28:54.083Z,22.50
2018-07-13T21:31:22.920Z,22.20
2018-07-13T21:33:51.764Z,22.20
2018-07-13T21:36:20.630Z,22.00
2018-07-13T21:38:49.490Z,22.20
2018-07-13T21:41:18.355Z,21.90
2018-07-13T21:43:47.212Z,21.90
2018-07-13T21:46:16.013Z,21.50
2018-07-13T21:48:44.836Z,21.70
2018-07-13T21:51:13.698Z,21.90
2018-07-13T21:53:42.555Z,21.60
2018-07-13T21:56:11.435Z,21.40
2018-07-13T21:58:40.333Z,21.50
2018-07-13T22:01:09.202Z,21.30
2018-07-13T22:03:38.024Z,21.30
2018-07-13T22:06:06.872Z,21.20
2018-07-13T22:08:35.693Z,21.00
2018-07-13T22:11:04.560Z,21.20
2018-07-13T22:13:33.439Z,20.70
2018-07-13T22:16:02.356Z,21.20
2018-07-13T22:18:31.271Z,21.20
2018-07-13T22:21:00.132Z,21.30
2018-07-13T22:23:29.045Z,21.00
2018-07-13T22:25:58.220Z,21.00
2018-07-13T22:28:27.376Z,21.10
2018-07-13T22:30:56.230Z,21.10
2018-07-13T22:33:25.080Z,20.90
2018-07-13T22:35:53.890Z,20.80
2018-07-13T22:38:22.748Z,20.80
2018-07-13T22:40:51.621Z,20.60
2018-07-13T22:43:20.492Z,20.50
2018-07-13T22:45:49.315Z,20.40
2018-07-13T22:48:18.164Z,20.40
2018-07-13T22:50:46.997Z,20.30
2018-07-13T22:53:15.892Z,20.30
2018-07-13T22:55:44.729Z,20.20
2018-07-13T22:58:13.557Z,20.40
2018-07-13T23:00:42.407Z,20.30
2018-07-13T23:03:11.268Z,20.50
2018-07-13T23:05:40.069Z,20.60
2018-07-13T23:08:08.895Z,20.50
2018-07-13T23:10:37.698Z,20.50
2018-07-13T23:13:06.548Z,20.20
2018-07-13T23:15:35.368Z,20.20
2018-07-13T23:18:04.177Z,20.10
2018-07-13T23:20:33.019Z,20.00
2018-07-13T23:23:01.803Z,20.10
2018-07-13T23:25:30.718Z,20.20
2018-07-13T23:27:59.558Z,20.20
2018-07-13T23:30:28.350Z,20.20
2018-07-13T23:32:57.176Z,20.00
2018-07-13T23:35:25.989Z,20.00
2018-07-13T23:37:54.866Z,20.10
2018-07-13T23:40:23.697Z,20.10
2018-07-13T23:42:52.532Z,19.90
2018-07-13T23:45:21.421Z,19.90
2018-07-13T23:47:50.332Z,19.80
2018-07-13T23:50:19.205Z,19.70
2018-07-13T23:52:48.023Z,19.90
2018-07-13T23:55:16.890Z,20.00
2018-07-13T23:57:45.716Z,20.10
